Healy, AK

2:11 PM AKST on December 04, 2016 (GMT -0900)
Lignite | | Change Station

Elev 1300 ft 63.90 °N, 149.03 °W | Updated 11 seconds ago

Clear
Clear
-21.1 °F
Feels Like -21 °F
N
0.0
Wind Variable Wind from West
Gusts 0.0 mph

Today
High -- | Low -- °F
--% Chance of Precip.
Yesterday
High -- | Low -- °F
Precip. -- in
Pressure 30.44 in
Visibility 10.0 miles
Clouds Clear
Windchill -21 °F
Dew Point -38 °F
Humidity 40%
Rainfall 0.00 in
Snow Depth Not available.
10:19 AM 3:12 PM
Waxing Crescent, 26% visible
METAR PAIN 042256Z AUTO 00000KT 10SM CLR M29/M32 A3044 RMK AO1
Pressure 30.44 in
Visibility 10.0 miles
Clouds Clear
Windchill -21 °F
Dew Point -38 °F
Humidity 40%
Rainfall 0.00 in
Snow Depth Not available.
10:19 AM 3:12 PM
Waxing Crescent, 26% visible
METAR PAIN 042256Z AUTO 00000KT 10SM CLR M29/M32 A3044 RMK AO1

10-Day Weather Forecast

Almanac

Astronomy

Dec. 04, 2016 Rise Set
Actual Time
Civil Twilight
Nautical Twilight
Astronomical Twilight
Moon
Length of Visible Light
Length of Day
Tomorrow will be .
, % of the Moon is Illuminated

Today's Extremes

State Highs State Lows

Community

WunderPhotos

Upload Photos

1,955,695 photos uploaded!

WunderBlog® & News

Nearby

Air Quality

  Air Quality AQ Index Pollutant
Not available.

Snow Depth

Station Depth Elevation

Earthquake Activity

City Distance Mag. Time & Date
Minimum magnitude displayed is 2.5.

Coastal Water Temperatures

Place Temperature

Stations

Nearby Weather Stations

Station Location Temp. Windchill Dew Point Humidity Wind Precip. Elev Updated Type
                   

Watches & Warnings

There are currently no watches in effect.